createdAt,value
2022-11-17T00:02:19.991Z,62.87
2022-11-17T00:04:49.137Z,62.86
2022-11-17T00:07:20.024Z,62.95
2022-11-17T00:09:49.118Z,62.81
2022-11-17T00:12:35.707Z,62.90
2022-11-17T00:15:04.887Z,62.75
2022-11-17T00:17:34.345Z,62.95
2022-11-17T00:20:20.606Z,62.94
2022-11-17T00:22:51.591Z,62.48
2022-11-17T00:25:20.705Z,62.37
2022-11-17T00:27:50.244Z,62.71
2022-11-17T00:30:33.100Z,62.43
2022-11-17T00:33:21.069Z,62.27
2022-11-17T00:35:53.521Z,62.81
2022-11-17T00:38:24.546Z,62.30
2022-11-17T00:40:53.643Z,62.49
2022-11-17T00:43:23.169Z,62.44
2022-11-17T00:45:52.280Z,62.25
2022-11-17T00:48:21.956Z,62.49
2022-11-17T00:50:51.200Z,62.07
2022-11-17T00:53:20.619Z,62.43
2022-11-17T00:55:51.236Z,62.25
2022-11-17T00:58:20.789Z,62.94
2022-11-17T01:00:49.998Z,62.39
2022-11-17T01:03:19.541Z,62.44
2022-11-17T01:05:48.618Z,62.31
2022-11-17T01:08:18.100Z,62.66
2022-11-17T01:10:47.318Z,62.37
2022-11-17T01:13:19.938Z,62.70
2022-11-17T01:15:49.199Z,62.10
2022-11-17T01:18:18.682Z,62.19
2022-11-17T01:20:47.750Z,62.05
2022-11-17T01:23:17.118Z,62.37
2022-11-17T01:25:46.288Z,62.24
2022-11-17T01:28:15.738Z,62.46
2022-11-17T01:30:46.319Z,61.89
2022-11-17T01:33:15.777Z,62.19
2022-11-17T01:35:44.908Z,62.22
2022-11-17T01:38:14.351Z,62.17
2022-11-17T01:40:43.529Z,62.18
2022-11-17T01:43:13.091Z,62.16
2022-11-17T01:45:42.193Z,61.84
2022-11-17T01:48:13.292Z,62.32
2022-11-17T01:50:42.466Z,62.20
2022-11-17T01:53:12.918Z,62.42
2022-11-17T01:55:42.926Z,62.40
2022-11-17T01:58:13.096Z,62.27
2022-11-17T02:00:42.379Z,62.11
2022-11-17T02:03:13.251Z,62.06
2022-11-17T02:05:45.029Z,62.10
2022-11-17T02:08:14.511Z,62.48
2022-11-17T02:10:48.567Z,61.87
2022-11-17T02:13:20.843Z,62.10
2022-11-17T02:15:49.980Z,61.93
2022-11-17T02:18:20.906Z,62.39
2022-11-17T02:20:55.055Z,62.02
2022-11-17T02:23:38.514Z,61.79
2022-11-17T02:26:16.237Z,61.60
2022-11-17T02:28:47.259Z,61.94
2022-11-17T02:31:18.365Z,62.00
2022-11-17T02:33:50.352Z,61.99
2022-11-17T02:36:20.774Z,62.28
2022-11-17T02:38:52.087Z,61.98
2022-11-17T02:41:23.186Z,62.06
2022-11-17T02:44:05.448Z,61.59
2022-11-17T02:46:46.172Z,61.48
2022-11-17T02:49:17.903Z,62.12
2022-11-17T02:51:47.207Z,62.07
2022-11-17T02:54:16.693Z,62.12
2022-11-17T02:56:45.962Z,61.70
2022-11-17T02:59:18.235Z,61.71
2022-11-17T03:02:05.055Z,61.79
2022-11-17T03:04:37.332Z,61.31
2022-11-17T03:07:11.581Z,61.50
2022-11-17T03:09:45.270Z,61.55
2022-11-17T03:12:16.571Z,61.78
2022-11-17T03:14:49.146Z,61.74
2022-11-17T03:17:18.714Z,61.66
2022-11-17T03:19:48.453Z,61.61
2022-11-17T03:22:18.527Z,61.42
2022-11-17T03:24:48.622Z,61.20
2022-11-17T03:27:18.511Z,61.05
2022-11-17T03:29:50.677Z,61.79
2022-11-17T03:32:20.003Z,61.51
2022-11-17T03:34:50.941Z,61.18
2022-11-17T03:37:20.572Z,61.17
2022-11-17T03:39:50.712Z,61.61
2022-11-17T03:42:20.386Z,61.76
2022-11-17T03:44:52.441Z,61.63
2022-11-17T03:47:21.690Z,61.47
2022-11-17T03:49:53.107Z,61.22
2022-11-17T03:52:22.269Z,61.23
2022-11-17T03:54:51.885Z,61.22
2022-11-17T03:57:21.641Z,61.42
2022-11-17T03:59:53.828Z,61.47
2022-11-17T04:02:23.015Z,61.11
2022-11-17T04:05:07.505Z,61.45
2022-11-17T04:07:37.278Z,61.46
2022-11-17T04:10:07.453Z,60.77
2022-11-17T04:12:53.643Z,61.17
2022-11-17T04:15:47.055Z,61.32
2022-11-17T04:18:16.270Z,60.83
2022-11-17T04:20:45.739Z,61.00
2022-11-17T04:23:15.343Z,61.09
2022-11-17T04:26:02.507Z,61.10
2022-11-17T04:28:40.964Z,61.44
2022-11-17T04:31:15.418Z,61.71
2022-11-17T04:33:45.103Z,61.30
2022-11-17T04:36:15.340Z,61.00
2022-11-17T04:38:44.591Z,61.17
2022-11-17T04:41:31.932Z,61.01
2022-11-17T04:44:01.192Z,61.30
2022-11-17T04:46:32.652Z,61.17
2022-11-17T04:49:02.226Z,61.45
2022-11-17T04:51:32.033Z,61.38
2022-11-17T04:54:01.332Z,61.20
2022-11-17T04:56:30.848Z,61.10
2022-11-17T04:59:00.023Z,61.01
2022-11-17T05:01:29.508Z,61.07
2022-11-17T05:04:00.475Z,61.33
2022-11-17T05:06:32.106Z,61.21
2022-11-17T05:09:01.867Z,61.25
2022-11-17T05:11:49.144Z,61.41
2022-11-17T05:14:18.774Z,60.94
2022-11-17T05:17:09.881Z,60.74
2022-11-17T05:19:42.615Z,60.98
2022-11-17T05:22:29.887Z,61.45
2022-11-17T05:24:58.974Z,61.46
2022-11-17T05:27:28.470Z,61.25
2022-11-17T05:29:57.663Z,61.34
2022-11-17T05:32:27.132Z,61.18
2022-11-17T05:34:57.685Z,61.36
2022-11-17T05:37:27.235Z,61.05
2022-11-17T05:39:56.455Z,61.19
2022-11-17T05:42:26.066Z,61.38
2022-11-17T05:44:55.460Z,61.38
2022-11-17T05:47:26.143Z,61.30
2022-11-17T05:49:55.357Z,60.81
2022-11-17T05:52:26.266Z,61.40
2022-11-17T05:54:55.423Z,61.16
2022-11-17T05:57:26.191Z,61.14
2022-11-17T05:59:55.973Z,61.18
2022-11-17T06:02:26.044Z,61.07
2022-11-17T06:04:55.209Z,61.04
2022-11-17T06:07:26.243Z,60.93
2022-11-17T06:09:55.417Z,61.43
2022-11-17T06:12:25.054Z,61.11
2022-11-17T06:14:54.242Z,61.19
2022-11-17T06:17:24.390Z,61.42
2022-11-17T06:19:54.729Z,60.82
2022-11-17T06:22:25.654Z,61.13
2022-11-17T06:24:54.864Z,61.10
2022-11-17T06:27:25.646Z,60.76
2022-11-17T06:29:54.898Z,60.72
2022-11-17T06:32:24.427Z,60.64
2022-11-17T06:34:56.090Z,60.91
2022-11-17T06:37:29.425Z,61.13
2022-11-17T06:39:58.606Z,61.23
2022-11-17T06:42:41.827Z,60.89
2022-11-17T06:45:11.532Z,60.66
2022-11-17T06:47:41.095Z,60.47
2022-11-17T06:50:10.638Z,61.00
2022-11-17T06:52:41.737Z,60.87
2022-11-17T06:55:11.125Z,60.70
2022-11-17T06:57:40.610Z,60.80
2022-11-17T07:00:10.363Z,60.12
2022-11-17T07:02:39.839Z,60.66
2022-11-17T07:05:09.288Z,60.91
2022-11-17T07:07:38.838Z,60.83
2022-11-17T07:10:10.135Z,61.24
2022-11-17T07:12:39.680Z,61.07
2022-11-17T07:15:09.271Z,61.27
2022-11-17T07:17:38.899Z,61.00
2022-11-17T07:20:08.888Z,61.04
2022-11-17T07:22:38.573Z,61.26
2022-11-17T07:25:07.956Z,60.76
2022-11-17T07:27:39.157Z,60.86
2022-11-17T07:30:09.900Z,60.89
2022-11-17T07:32:39.455Z,61.20
2022-11-17T07:35:09.129Z,61.06
2022-11-17T07:37:38.778Z,61.06
2022-11-17T07:40:08.894Z,61.14
2022-11-17T07:42:40.073Z,61.37
2022-11-17T07:45:10.071Z,61.48
2022-11-17T07:47:39.556Z,61.52
2022-11-17T07:50:09.312Z,61.62
2022-11-17T07:52:41.547Z,61.43
2022-11-17T07:55:11.279Z,61.31
2022-11-17T07:57:42.749Z,61.05
2022-11-17T08:00:13.087Z,60.65
2022-11-17T08:02:42.581Z,61.07
2022-11-17T08:05:11.801Z,61.10
2022-11-17T08:07:41.442Z,61.38
2022-11-17T08:10:10.847Z,61.56
2022-11-17T08:12:40.362Z,61.38
2022-11-17T08:15:11.216Z,61.13
2022-11-17T08:17:40.781Z,61.20
2022-11-17T08:20:10.520Z,60.79
2022-11-17T08:22:40.310Z,60.86
2022-11-17T08:25:10.067Z,60.44
2022-11-17T08:27:39.547Z,60.54
2022-11-17T08:30:10.986Z,61.16
2022-11-17T08:32:40.582Z,61.05
2022-11-17T08:35:09.857Z,60.88
2022-11-17T08:37:41.671Z,60.60
2022-11-17T08:40:11.698Z,60.35
2022-11-17T08:42:41.266Z,60.71
2022-11-17T08:45:12.555Z,60.87
2022-11-17T08:47:42.192Z,60.41
2022-11-17T08:50:11.527Z,60.44
2022-11-17T08:52:41.282Z,60.05
2022-11-17T08:55:10.850Z,59.95
2022-11-17T08:57:40.437Z,59.91
2022-11-17T09:00:12.263Z,59.78
2022-11-17T09:02:41.865Z,59.92
2022-11-17T09:05:11.065Z,60.06
2022-11-17T09:07:40.747Z,60.38
2022-11-17T09:10:11.295Z,60.12
2022-11-17T09:12:40.940Z,60.51
2022-11-17T09:15:12.488Z,60.50
2022-11-17T09:17:43.978Z,60.69
2022-11-17T09:20:13.604Z,60.81
2022-11-17T09:22:43.347Z,60.40
2022-11-17T09:25:13.640Z,60.18
2022-11-17T09:27:43.532Z,59.92
2022-11-17T09:30:15.783Z,60.60
2022-11-17T09:32:47.561Z,60.55
2022-11-17T09:35:17.268Z,61.00
2022-11-17T09:37:47.166Z,60.87
2022-11-17T09:40:17.260Z,60.81
2022-11-17T09:42:48.440Z,60.92
2022-11-17T09:45:20.222Z,61.09
2022-11-17T09:47:51.672Z,60.56
2022-11-17T09:50:22.483Z,60.33
2022-11-17T09:52:55.694Z,60.66
2022-11-17T09:55:32.750Z,59.84
2022-11-17T09:58:13.277Z,60.40
2022-11-17T10:00:45.229Z,60.31
2022-11-17T10:03:17.008Z,60.48
2022-11-17T10:05:46.316Z,60.11
2022-11-17T10:08:17.141Z,60.34
2022-11-17T10:10:46.970Z,60.43
2022-11-17T10:13:19.366Z,59.41
2022-11-17T10:15:50.760Z,60.11
2022-11-17T10:18:20.485Z,59.93
2022-11-17T10:20:49.775Z,60.07
2022-11-17T10:23:21.271Z,59.85
2022-11-17T10:25:51.097Z,59.91
2022-11-17T10:28:30.900Z,60.13
2022-11-17T10:31:02.200Z,60.05
2022-11-17T10:33:39.498Z,60.17
2022-11-17T10:36:09.558Z,59.87
2022-11-17T10:38:39.347Z,59.98
2022-11-17T10:41:13.168Z,59.70
2022-11-17T10:43:42.932Z,59.25
2022-11-17T10:46:16.721Z,58.97
2022-11-17T10:48:55.742Z,58.26
2022-11-17T10:51:25.341Z,58.46
2022-11-17T10:54:03.729Z,59.17
2022-11-17T10:56:35.469Z,59.42
2022-11-17T10:59:12.786Z,59.65
2022-11-17T11:01:44.233Z,59.99
2022-11-17T11:04:30.894Z,59.85
2022-11-17T11:07:14.346Z,59.23
2022-11-17T11:09:50.076Z,59.33
2022-11-17T11:12:20.734Z,57.76
2022-11-17T11:14:54.370Z,59.16
2022-11-17T11:17:28.608Z,59.06
2022-11-17T11:19:59.568Z,57.93
2022-11-17T11:22:30.078Z,58.30
2022-11-17T11:25:03.285Z,58.73
2022-11-17T11:27:48.133Z,59.08
2022-11-17T11:30:18.152Z,58.26
2022-11-17T11:32:56.176Z,58.66
2022-11-17T11:35:49.530Z,58.12
2022-11-17T11:38:26.175Z,58.70
2022-11-17T11:41:00.123Z,58.83
2022-11-17T11:43:31.923Z,59.32
2022-11-17T11:46:02.835Z,59.21
2022-11-17T11:48:34.575Z,58.58
2022-11-17T11:51:05.041Z,58.94
2022-11-17T11:53:38.264Z,59.13
2022-11-17T11:56:12.504Z,58.79
2022-11-17T11:58:43.757Z,58.83
2022-11-17T12:01:13.704Z,59.35
2022-11-17T12:03:47.761Z,58.34
2022-11-17T12:06:37.624Z,58.77
2022-11-17T12:09:11.640Z,58.03
2022-11-17T12:11:58.415Z,58.14
2022-11-17T12:14:28.643Z,58.56
2022-11-17T12:17:05.425Z,58.99
2022-11-17T12:19:59.721Z,58.61
2022-11-17T12:22:55.623Z,58.83
2022-11-17T12:25:27.429Z,59.49
2022-11-17T12:27:56.700Z,59.52
2022-11-17T12:30:45.046Z,59.33
2022-11-17T12:33:16.451Z,59.02
2022-11-17T12:35:48.248Z,59.45
2022-11-17T12:38:36.128Z,59.24
2022-11-17T12:41:07.607Z,59.40
2022-11-17T12:43:36.775Z,59.97
2022-11-17T12:46:17.366Z,59.49
2022-11-17T12:48:48.069Z,59.06
2022-11-17T12:51:18.424Z,59.33
2022-11-17T12:53:53.877Z,58.88
2022-11-17T12:56:46.838Z,58.43
2022-11-17T12:59:26.062Z,58.91
2022-11-17T13:01:57.252Z,58.84
2022-11-17T13:04:31.237Z,58.69
2022-11-17T13:07:01.408Z,58.59
2022-11-17T13:09:31.091Z,58.66
2022-11-17T13:12:01.483Z,58.03
2022-11-17T13:14:32.721Z,59.04
2022-11-17T13:17:05.341Z,59.16
2022-11-17T13:19:35.825Z,58.67
2022-11-17T13:22:08.084Z,58.97
2022-11-17T13:24:38.346Z,59.26
2022-11-17T13:27:08.669Z,58.64
2022-11-17T13:29:39.503Z,58.57
2022-11-17T13:32:13.787Z,58.29
2022-11-17T13:34:46.647Z,58.52
2022-11-17T13:37:17.147Z,58.73
2022-11-17T13:39:55.783Z,58.47
2022-11-17T13:42:25.485Z,58.61
2022-11-17T13:44:57.976Z,58.59
2022-11-17T13:47:28.741Z,58.85
2022-11-17T13:49:58.004Z,58.97
2022-11-17T13:52:36.368Z,58.82
2022-11-17T13:55:09.896Z,59.01
2022-11-17T13:57:39.421Z,58.75
2022-11-17T14:00:18.326Z,59.11
2022-11-17T14:02:54.963Z,59.12
2022-11-17T14:05:25.543Z,58.78
2022-11-17T14:07:56.998Z,58.68
2022-11-17T14:10:33.691Z,58.68
2022-11-17T14:13:33.602Z,58.49
2022-11-17T14:16:02.813Z,58.36
2022-11-17T14:18:37.007Z,58.36
2022-11-17T14:21:10.402Z,58.76
2022-11-17T14:23:39.971Z,58.05
2022-11-17T14:26:15.124Z,58.73
2022-11-17T14:28:45.908Z,58.59
2022-11-17T14:31:16.376Z,58.95
2022-11-17T14:33:47.290Z,59.20
2022-11-17T14:36:17.003Z,58.86
2022-11-17T14:38:46.931Z,59.19
2022-11-17T14:41:16.351Z,59.45
2022-11-17T14:43:47.879Z,59.13
2022-11-17T14:46:21.014Z,59.37
2022-11-17T14:48:51.979Z,59.24
2022-11-17T14:51:21.547Z,59.43
2022-11-17T14:53:51.082Z,59.30
2022-11-17T14:56:20.937Z,59.64
2022-11-17T14:58:50.862Z,59.12
2022-11-17T15:01:24.337Z,59.50
2022-11-17T15:03:57.811Z,59.58
2022-11-17T15:06:27.289Z,59.45
2022-11-17T15:08:58.273Z,59.39
2022-11-17T15:11:27.941Z,59.41
2022-11-17T15:14:02.745Z,59.23
2022-11-17T15:16:34.504Z,59.17
2022-11-17T15:19:08.598Z,59.19
2022-11-17T15:21:37.829Z,59.08
2022-11-17T15:24:09.383Z,59.04
2022-11-17T15:26:38.851Z,59.25
2022-11-17T15:29:08.947Z,59.31
2022-11-17T15:31:38.239Z,59.23
2022-11-17T15:34:12.442Z,59.21
2022-11-17T15:36:44.959Z,59.28
2022-11-17T15:39:14.933Z,59.45
2022-11-17T15:41:44.455Z,59.44
2022-11-17T15:44:14.273Z,59.43
2022-11-17T15:46:47.808Z,59.38
2022-11-17T15:49:19.505Z,59.07
2022-11-17T15:51:48.900Z,59.09
2022-11-17T15:54:20.994Z,59.34
2022-11-17T15:56:51.053Z,59.55
2022-11-17T15:59:20.801Z,59.60
2022-11-17T16:01:50.057Z,59.54
2022-11-17T16:04:21.752Z,59.16
2022-11-17T16:06:51.435Z,59.63
2022-11-17T16:09:21.242Z,59.33
2022-11-17T16:11:50.512Z,59.51
2022-11-17T16:14:20.194Z,59.03
2022-11-17T16:16:49.855Z,59.35
2022-11-17T16:19:21.007Z,59.36
2022-11-17T16:21:50.389Z,59.39
2022-11-17T16:24:20.176Z,59.32
2022-11-17T16:26:49.611Z,59.25
2022-11-17T16:29:19.278Z,59.79
2022-11-17T16:31:48.384Z,59.70
2022-11-17T16:34:18.258Z,59.38
2022-11-17T16:36:48.957Z,59.55
2022-11-17T16:39:18.965Z,59.76
2022-11-17T16:41:50.286Z,59.48
2022-11-17T16:44:20.738Z,59.68
2022-11-17T16:46:50.310Z,59.45
2022-11-17T16:49:20.409Z,59.47
2022-11-17T16:51:51.921Z,59.57
2022-11-17T16:54:21.680Z,59.77
2022-11-17T16:56:50.797Z,59.73
2022-11-17T16:59:20.548Z,59.65
2022-11-17T17:01:49.830Z,59.58
2022-11-17T17:04:19.476Z,59.41
2022-11-17T17:06:48.593Z,59.55
2022-11-17T17:09:23.319Z,59.49
2022-11-17T17:11:56.734Z,59.85
2022-11-17T17:14:26.255Z,59.40
2022-11-17T17:16:55.371Z,59.31
2022-11-17T17:19:25.238Z,59.88
2022-11-17T17:21:54.465Z,59.74
2022-11-17T17:24:25.542Z,59.46
2022-11-17T17:26:54.893Z,59.41
2022-11-17T17:29:24.397Z,59.54
2022-11-17T17:31:53.636Z,59.49
2022-11-17T17:34:23.211Z,59.61
2022-11-17T17:36:52.417Z,59.48
2022-11-17T17:39:22.180Z,59.34
2022-11-17T17:41:53.115Z,59.55
2022-11-17T17:44:22.813Z,59.55
2022-11-17T17:46:52.046Z,59.71
2022-11-17T17:49:21.733Z,59.70
2022-11-17T17:51:51.006Z,59.60
2022-11-17T17:54:24.130Z,59.44
2022-11-17T17:56:57.269Z,59.66
2022-11-17T17:59:26.867Z,59.82
2022-11-17T18:01:56.084Z,59.65
2022-11-17T18:04:25.831Z,59.65
2022-11-17T18:06:55.841Z,59.62
2022-11-17T18:09:25.433Z,59.64
2022-11-17T18:11:56.394Z,59.66
2022-11-17T18:14:26.157Z,59.91
2022-11-17T18:16:56.160Z,59.93
2022-11-17T18:19:29.935Z,59.72
2022-11-17T18:22:02.532Z,59.69
2022-11-17T18:24:32.158Z,59.51
2022-11-17T18:27:02.783Z,59.79
2022-11-17T18:29:32.317Z,59.86
2022-11-17T18:32:04.154Z,60.12
2022-11-17T18:34:34.639Z,59.78
2022-11-17T18:37:03.983Z,59.60
2022-11-17T18:39:33.704Z,60.18
2022-11-17T18:42:04.860Z,60.20
2022-11-17T18:44:34.742Z,59.96
2022-11-17T18:47:06.337Z,59.85
2022-11-17T18:49:36.335Z,60.00
2022-11-17T18:52:05.820Z,59.93
2022-11-17T18:54:39.374Z,60.00
2022-11-17T18:57:12.267Z,59.99
2022-11-17T18:59:43.425Z,60.05
2022-11-17T19:02:12.670Z,60.09
2022-11-17T19:04:42.509Z,59.91
2022-11-17T19:07:11.860Z,59.83
2022-11-17T19:09:41.847Z,60.32
2022-11-17T19:12:12.659Z,59.88
2022-11-17T19:14:42.309Z,59.80
2022-11-17T19:17:11.718Z,59.91
2022-11-17T19:19:41.258Z,59.68
2022-11-17T19:22:11.444Z,59.93
2022-11-17T19:24:43.479Z,60.08
2022-11-17T19:27:14.328Z,59.82
2022-11-17T19:29:44.025Z,59.84
2022-11-17T19:32:13.326Z,59.50
2022-11-17T19:34:43.009Z,59.62
2022-11-17T19:37:12.189Z,59.84
2022-11-17T19:39:41.898Z,60.19
2022-11-17T19:42:12.392Z,59.65
2022-11-17T19:44:43.430Z,59.87
2022-11-17T19:47:13.714Z,60.02
2022-11-17T19:49:51.450Z,60.03
2022-11-17T19:52:22.071Z,59.93
2022-11-17T19:54:51.609Z,59.68
2022-11-17T19:57:20.874Z,59.89
2022-11-17T19:59:52.085Z,59.84
2022-11-17T20:02:23.819Z,59.79
2022-11-17T20:04:53.283Z,59.74
2022-11-17T20:07:22.594Z,59.76
2022-11-17T20:09:52.158Z,60.06
2022-11-17T20:12:21.379Z,60.13
2022-11-17T20:14:52.540Z,59.78
2022-11-17T20:17:21.904Z,60.15
2022-11-17T20:19:51.540Z,59.76
2022-11-17T20:22:21.012Z,60.26
2022-11-17T20:24:50.648Z,59.85
2022-11-17T20:27:21.427Z,59.95
2022-11-17T20:29:52.650Z,59.79
2022-11-17T20:32:21.901Z,59.95
2022-11-17T20:34:51.466Z,60.11
2022-11-17T20:37:20.686Z,59.86
2022-11-17T20:39:50.244Z,60.08
2022-11-17T20:42:19.573Z,59.79
2022-11-17T20:44:49.126Z,60.21
2022-11-17T20:47:19.780Z,60.13
2022-11-17T20:49:49.193Z,60.35
2022-11-17T20:52:18.554Z,60.26
2022-11-17T20:54:51.268Z,59.87
2022-11-17T20:57:20.612Z,60.09
2022-11-17T20:59:50.219Z,59.93
2022-11-17T21:02:20.881Z,59.98
2022-11-17T21:04:50.353Z,59.93
2022-11-17T21:07:19.788Z,60.12
2022-11-17T21:09:49.463Z,59.94
2022-11-17T21:12:18.853Z,59.89
2022-11-17T21:14:49.025Z,60.39
2022-11-17T21:17:32.083Z,60.06
2022-11-17T21:20:04.620Z,60.12
2022-11-17T21:22:33.842Z,60.45
2022-11-17T21:25:03.424Z,60.29
2022-11-17T21:27:32.647Z,60.26
2022-11-17T21:30:02.139Z,60.14
2022-11-17T21:32:31.436Z,60.12
2022-11-17T21:35:02.649Z,59.95
2022-11-17T21:37:31.937Z,59.42
2022-11-17T21:40:01.694Z,60.07
2022-11-17T21:42:31.020Z,59.75
2022-11-17T21:45:00.725Z,60.06
2022-11-17T21:47:41.641Z,59.67
2022-11-17T21:50:15.744Z,59.64
2022-11-17T21:52:45.115Z,60.24
2022-11-17T21:55:14.707Z,59.66
2022-11-17T21:57:43.952Z,59.99
2022-11-17T22:00:13.870Z,60.24
2022-11-17T22:02:43.167Z,60.27
2022-11-17T22:05:12.868Z,60.87
2022-11-17T22:07:43.607Z,60.00
2022-11-17T22:10:13.189Z,59.80
2022-11-17T22:12:42.390Z,60.12
2022-11-17T22:15:12.035Z,59.84
2022-11-17T22:17:41.323Z,60.04
2022-11-17T22:20:11.115Z,59.90
2022-11-17T22:22:40.317Z,60.09
2022-11-17T22:25:37.763Z,60.11
2022-11-17T22:28:00.813Z,60.05
2022-11-17T22:30:30.328Z,60.08
2022-11-17T22:32:59.533Z,60.56
2022-11-17T22:35:29.736Z,59.96
2022-11-17T22:37:58.944Z,60.20
2022-11-17T22:40:30.011Z,60.32
2022-11-17T22:43:04.154Z,60.11
2022-11-17T22:45:36.596Z,60.39
2022-11-17T22:48:05.897Z,60.16
2022-11-17T22:50:36.430Z,60.11
2022-11-17T22:53:05.679Z,60.41
2022-11-17T22:55:36.639Z,60.13
2022-11-17T22:58:05.836Z,60.49
2022-11-17T23:00:35.392Z,60.47
2022-11-17T23:03:04.912Z,60.26
2022-11-17T23:05:34.602Z,60.21
2022-11-17T23:08:09.459Z,60.42
2022-11-17T23:10:42.735Z,60.14
2022-11-17T23:13:12.107Z,60.21
2022-11-17T23:15:41.922Z,60.19
2022-11-17T23:18:11.273Z,60.42
2022-11-17T23:20:41.416Z,60.23
2022-11-17T23:23:10.781Z,60.64
2022-11-17T23:25:41.190Z,60.03
2022-11-17T23:28:12.369Z,60.12
2022-11-17T23:30:42.215Z,60.28
2022-11-17T23:33:11.552Z,60.41
2022-11-17T23:35:41.309Z,60.34
2022-11-17T23:38:10.668Z,60.35
2022-11-17T23:40:40.477Z,60.37
2022-11-17T23:43:09.891Z,60.36
2022-11-17T23:45:41.148Z,60.25
2022-11-17T23:48:10.458Z,60.50
2022-11-17T23:50:40.419Z,60.01
2022-11-17T23:53:09.817Z,60.41
2022-11-17T23:55:39.544Z,60.40
2022-11-17T23:58:08.907Z,60.42
